createdAt,value
2022-11-23T00:00:05.048Z,3.60
2022-11-23T00:03:16.653Z,3.60
2022-11-23T00:06:26.584Z,3.60
2022-11-23T00:09:34.882Z,3.60
2022-11-23T00:12:44.016Z,3.60
2022-11-23T00:15:52.350Z,3.60
2022-11-23T00:19:02.979Z,3.60
2022-11-23T00:22:11.279Z,3.60
2022-11-23T00:25:19.560Z,3.60
2022-11-23T00:28:27.860Z,3.60
2022-11-23T00:31:36.153Z,3.60
2022-11-23T00:34:45.855Z,3.60
2022-11-23T00:37:54.130Z,3.60
2022-11-23T00:41:04.369Z,3.60
2022-11-23T00:44:13.071Z,3.70
2022-11-23T00:47:21.361Z,3.70
2022-11-23T00:50:31.084Z,3.60
2022-11-23T00:53:39.429Z,3.70
2022-11-23T00:56:47.938Z,3.70
2022-11-23T00:59:56.223Z,3.70
2022-11-23T01:03:06.315Z,3.70
2022-11-23T01:06:17.583Z,3.70
2022-11-23T01:09:26.936Z,3.70
2022-11-23T01:12:35.736Z,3.70
2022-11-23T01:15:50.482Z,3.80
2022-11-23T01:19:00.549Z,3.80
2022-11-23T01:22:10.216Z,3.80
2022-11-23T01:25:18.615Z,3.80
2022-11-23T01:28:26.909Z,3.80
2022-11-23T01:31:36.018Z,3.90
2022-11-23T01:34:44.284Z,3.80
2022-11-23T01:37:54.075Z,3.90
2022-11-23T01:41:02.349Z,3.90
2022-11-23T01:44:30.993Z,3.90
2022-11-23T01:47:39.618Z,3.90
2022-11-23T01:50:51.254Z,3.90
2022-11-23T01:54:06.262Z,3.90
2022-11-23T01:57:18.862Z,3.90
2022-11-23T02:00:27.216Z,3.90
2022-11-23T02:03:37.726Z,3.90
2022-11-23T02:06:50.417Z,4.00
2022-11-23T02:10:00.277Z,3.90
2022-11-23T02:13:12.015Z,4.00
2022-11-23T02:16:20.652Z,4.00
2022-11-23T02:19:36.204Z,4.00
2022-11-23T02:22:54.825Z,4.00
2022-11-23T02:26:09.172Z,4.00
2022-11-23T02:29:21.798Z,4.00
2022-11-23T02:32:30.990Z,4.00
2022-11-23T02:35:50.956Z,4.10
2022-11-23T02:39:01.059Z,4.00
2022-11-23T02:42:10.721Z,4.10
2022-11-23T02:45:27.600Z,4.00
2022-11-23T02:48:35.879Z,4.10
2022-11-23T02:51:45.244Z,4.00
2022-11-23T02:54:53.496Z,4.00
2022-11-23T02:58:03.517Z,4.00
2022-11-23T03:01:11.994Z,4.10
2022-11-23T03:04:27.149Z,4.00
2022-11-23T03:07:36.630Z,4.10
2022-11-23T03:10:45.239Z,4.00
2022-11-23T03:13:54.949Z,4.00
2022-11-23T03:17:03.957Z,4.00
2022-11-23T03:20:17.622Z,4.00
2022-11-23T03:23:28.273Z,4.00
2022-11-23T03:26:36.648Z,4.00
2022-11-23T03:29:52.468Z,3.90
2022-11-23T03:33:02.734Z,4.00
2022-11-23T03:36:11.338Z,4.00
2022-11-23T03:39:23.886Z,3.90
2022-11-23T03:42:32.179Z,3.90
2022-11-23T03:45:42.570Z,3.90
2022-11-23T03:48:50.850Z,3.90
2022-11-23T03:51:59.581Z,3.90
2022-11-23T03:55:09.712Z,3.80
2022-11-23T03:58:18.292Z,3.80
2022-11-23T04:01:29.044Z,3.80
2022-11-23T04:04:42.847Z,3.80
2022-11-23T04:08:13.755Z,3.80
2022-11-23T04:11:22.176Z,3.80
2022-11-23T04:14:31.136Z,3.80
2022-11-23T04:17:42.330Z,3.70
2022-11-23T04:20:50.658Z,3.70
2022-11-23T04:24:00.469Z,3.70
2022-11-23T04:27:12.197Z,3.70
2022-11-23T04:30:21.211Z,3.60
2022-11-23T04:33:31.764Z,3.70
2022-11-23T04:36:40.742Z,3.70
2022-11-23T04:39:50.430Z,3.60
2022-11-23T04:43:02.173Z,3.70
2022-11-23T04:46:14.139Z,3.70
2022-11-23T04:49:24.753Z,3.70
2022-11-23T04:52:33.168Z,3.60
2022-11-23T04:55:42.089Z,3.70
2022-11-23T04:58:51.705Z,3.70
2022-11-23T05:02:00.102Z,3.70
2022-11-23T05:05:32.784Z,3.70
2022-11-23T05:08:41.741Z,3.70
2022-11-23T05:12:05.804Z,3.70
2022-11-23T05:15:15.417Z,3.70
2022-11-23T05:18:23.804Z,3.70
2022-11-23T05:21:34.065Z,3.70
2022-11-23T05:24:42.611Z,3.80
2022-11-23T05:28:03.678Z,3.80
2022-11-23T05:31:19.552Z,3.80
2022-11-23T05:34:29.033Z,3.80
2022-11-23T05:37:39.068Z,3.80
2022-11-23T05:40:50.233Z,3.90
2022-11-23T05:43:58.706Z,3.90
2022-11-23T05:47:09.680Z,3.90
2022-11-23T05:50:19.627Z,3.90
2022-11-23T05:53:29.663Z,3.90
2022-11-23T05:56:46.263Z,3.90
2022-11-23T06:00:02.199Z,3.90
2022-11-23T06:03:20.888Z,3.90
2022-11-23T06:06:29.499Z,3.90
2022-11-23T06:09:39.261Z,3.90
2022-11-23T06:12:51.759Z,4.00
2022-11-23T06:16:01.321Z,4.00
2022-11-23T06:19:18.514Z,4.00
2022-11-23T06:22:27.031Z,4.00
2022-11-23T06:25:42.686Z,4.00
2022-11-23T06:28:56.924Z,4.00
2022-11-23T06:32:08.165Z,4.00
2022-11-23T06:35:16.748Z,3.90
2022-11-23T06:38:26.220Z,3.90
2022-11-23T06:41:45.362Z,3.90
2022-11-23T06:44:54.364Z,3.90
2022-11-23T06:48:04.220Z,3.90
2022-11-23T06:51:15.513Z,3.90
2022-11-23T06:54:27.407Z,3.90
2022-11-23T06:57:38.692Z,3.90
2022-11-23T07:00:47.036Z,3.90
2022-11-23T07:03:56.129Z,3.90
2022-11-23T07:07:11.956Z,3.90
2022-11-23T07:10:27.277Z,3.90
2022-11-23T07:13:40.721Z,3.90
2022-11-23T07:16:49.005Z,3.90
2022-11-23T07:19:57.426Z,3.90
2022-11-23T07:23:07.754Z,3.90
2022-11-23T07:26:16.272Z,3.90
2022-11-23T07:29:25.925Z,4.00
2022-11-23T07:32:34.202Z,4.00
2022-11-23T07:35:43.426Z,3.90
2022-11-23T07:38:51.755Z,4.00
2022-11-23T07:45:31.856Z,3.90
2022-11-23T07:48:41.614Z,4.00
2022-11-23T07:51:49.915Z,4.00
2022-11-23T07:55:00.244Z,4.00
2022-11-23T07:58:08.643Z,4.00
2022-11-23T08:01:19.735Z,4.00
2022-11-23T08:04:28.020Z,4.00
2022-11-23T08:07:36.480Z,4.00
2022-11-23T08:10:48.550Z,4.00
2022-11-23T08:14:01.092Z,4.00
2022-11-23T08:17:10.997Z,4.00
2022-11-23T08:20:19.296Z,4.10
2022-11-23T08:23:27.825Z,4.10
2022-11-23T08:26:36.200Z,4.10
2022-11-23T08:29:44.614Z,4.10
2022-11-23T08:32:54.316Z,4.10
2022-11-23T08:36:05.442Z,4.20
2022-11-23T08:39:14.820Z,4.10
2022-11-23T08:42:23.134Z,4.10
2022-11-23T08:45:31.661Z,4.20
2022-11-23T08:48:41.439Z,4.20
2022-11-23T08:51:50.355Z,4.20
2022-11-23T08:54:58.801Z,4.20
2022-11-23T08:58:13.124Z,4.20
2022-11-23T09:01:21.765Z,4.20
2022-11-23T09:04:31.685Z,4.20
2022-11-23T09:07:40.981Z,4.30
2022-11-23T09:10:49.274Z,4.30
2022-11-23T09:13:57.561Z,4.30
2022-11-23T09:17:05.835Z,4.30
2022-11-23T09:20:16.117Z,4.30
2022-11-23T09:23:27.028Z,4.30
2022-11-23T09:26:35.337Z,4.40
2022-11-23T09:29:43.627Z,4.30
2022-11-23T09:32:51.994Z,4.40
2022-11-23T09:36:03.365Z,4.40
2022-11-23T09:39:12.937Z,4.40
2022-11-23T09:42:38.663Z,4.40
2022-11-23T09:45:51.238Z,4.40
2022-11-23T09:49:16.872Z,4.40
2022-11-23T09:52:27.318Z,4.40
2022-11-23T09:55:40.452Z,4.50
2022-11-23T09:58:54.580Z,4.40
2022-11-23T10:02:03.264Z,4.40
2022-11-23T10:05:18.303Z,4.50
2022-11-23T10:08:38.573Z,4.50
2022-11-23T10:12:09.804Z,4.50
2022-11-23T10:15:23.260Z,4.50
2022-11-23T10:18:40.230Z,4.50
2022-11-23T10:21:56.624Z,4.60
2022-11-23T10:25:15.448Z,4.60
2022-11-23T10:28:24.550Z,4.60
2022-11-23T10:31:32.961Z,4.60
2022-11-23T10:34:50.677Z,4.70
2022-11-23T10:38:18.123Z,4.60
2022-11-23T10:41:30.505Z,4.70
2022-11-23T10:44:40.050Z,4.60
2022-11-23T10:47:52.058Z,4.70
2022-11-23T10:51:17.779Z,4.70
2022-11-23T10:54:32.669Z,4.70
2022-11-23T10:57:47.874Z,4.70
2022-11-23T11:01:03.000Z,4.70
2022-11-23T11:04:24.205Z,4.70
2022-11-23T11:07:33.154Z,4.70
2022-11-23T11:10:43.774Z,4.70
2022-11-23T11:14:03.240Z,4.70
2022-11-23T11:17:27.575Z,4.70
2022-11-23T11:20:38.212Z,4.80
2022-11-23T11:23:53.971Z,4.80
2022-11-23T11:27:06.067Z,4.70
2022-11-23T11:30:25.119Z,4.80
2022-11-23T11:33:42.261Z,4.70
2022-11-23T11:36:57.377Z,4.80
2022-11-23T11:40:12.063Z,4.80
2022-11-23T11:43:34.777Z,4.80
2022-11-23T11:46:53.961Z,4.80
2022-11-23T11:50:12.056Z,4.80
2022-11-23T11:53:25.533Z,4.80
2022-11-23T11:56:39.479Z,4.80
2022-11-23T11:59:52.843Z,4.80
2022-11-23T12:03:10.265Z,4.90
2022-11-23T12:06:27.811Z,4.90
2022-11-23T12:09:40.094Z,4.90
2022-11-23T12:12:49.388Z,4.90
2022-11-23T12:16:06.588Z,4.90
2022-11-23T12:19:20.375Z,4.90
2022-11-23T12:22:40.596Z,4.90
2022-11-23T12:25:56.406Z,4.90
2022-11-23T12:29:31.747Z,4.90
2022-11-23T12:32:52.258Z,4.90
2022-11-23T12:36:19.049Z,4.90
2022-11-23T12:39:55.389Z,4.90
2022-11-23T12:43:07.368Z,4.90
2022-11-23T12:46:21.424Z,4.90
2022-11-23T12:49:39.953Z,5.00
2022-11-23T12:53:00.549Z,4.90
2022-11-23T12:56:16.136Z,4.90
2022-11-23T12:59:26.230Z,4.90
2022-11-23T13:03:18.430Z,4.90
2022-11-23T13:07:29.697Z,4.90
2022-11-23T13:10:51.372Z,5.00
2022-11-23T13:14:14.730Z,4.90
2022-11-23T13:17:32.267Z,5.00
2022-11-23T13:21:00.328Z,5.00
2022-11-23T13:24:28.168Z,5.00
2022-11-23T13:27:46.795Z,5.00
2022-11-23T13:31:24.912Z,5.00
2022-11-23T13:34:47.060Z,5.00
2022-11-23T13:38:25.439Z,5.00
2022-11-23T13:42:00.570Z,5.00
2022-11-23T13:45:31.505Z,5.00
2022-11-23T13:49:00.579Z,5.00
2022-11-23T13:52:25.686Z,5.00
2022-11-23T13:55:36.729Z,5.00
2022-11-23T13:58:53.322Z,5.00
2022-11-23T14:02:25.960Z,5.00
2022-11-23T14:06:01.487Z,5.00
2022-11-23T14:09:18.949Z,5.00
2022-11-23T14:12:34.780Z,5.00
2022-11-23T14:15:47.157Z,5.00
2022-11-23T14:19:08.133Z,5.00
2022-11-23T14:22:27.003Z,4.90
2022-11-23T14:25:50.209Z,5.00
2022-11-23T14:29:19.013Z,5.00
2022-11-23T14:32:43.892Z,5.00
2022-11-23T14:36:04.332Z,5.00
2022-11-23T14:39:54.621Z,5.00
2022-11-23T14:43:03.529Z,5.00
2022-11-23T14:46:17.267Z,5.00
2022-11-23T14:49:25.763Z,4.90
2022-11-23T14:52:37.707Z,5.00
2022-11-23T14:55:50.053Z,4.90
2022-11-23T14:59:03.364Z,5.00
2022-11-23T15:02:19.557Z,4.90
2022-11-23T15:05:31.410Z,4.90
2022-11-23T15:08:48.345Z,4.90
2022-11-23T15:12:07.816Z,4.90
2022-11-23T15:15:20.626Z,4.90
2022-11-23T15:18:31.105Z,5.00
2022-11-23T15:21:39.420Z,4.90
2022-11-23T15:24:50.292Z,4.90
2022-11-23T15:27:58.745Z,4.90
2022-11-23T15:31:30.474Z,4.90
2022-11-23T15:34:39.055Z,4.90
2022-11-23T15:37:48.913Z,4.90
2022-11-23T15:41:05.169Z,4.90
2022-11-23T15:44:19.281Z,4.90
2022-11-23T15:47:29.353Z,4.90
2022-11-23T15:50:46.031Z,4.90
2022-11-23T15:53:55.209Z,4.90
2022-11-23T15:57:08.847Z,4.90
2022-11-23T16:00:24.986Z,4.90
2022-11-23T16:03:43.025Z,4.90
2022-11-23T16:06:51.397Z,4.90
2022-11-23T16:10:20.989Z,4.90
2022-11-23T16:13:38.821Z,4.90
2022-11-23T16:16:48.822Z,4.90
2022-11-23T16:19:58.698Z,4.90
2022-11-23T16:23:07.480Z,4.90
2022-11-23T16:26:15.981Z,4.80
2022-11-23T16:29:27.479Z,4.90
2022-11-23T16:32:35.762Z,4.80
2022-11-23T16:35:44.316Z,4.80
2022-11-23T16:38:52.580Z,4.90
2022-11-23T16:42:01.037Z,4.80
2022-11-23T16:45:11.933Z,4.80
2022-11-23T16:48:40.073Z,4.80
2022-11-23T16:51:56.421Z,4.80
2022-11-23T16:55:05.990Z,4.80
2022-11-23T16:58:16.494Z,4.80
2022-11-23T17:01:28.124Z,4.80
2022-11-23T17:04:36.763Z,4.80
2022-11-23T17:07:45.896Z,4.80
2022-11-23T17:10:54.353Z,4.80
2022-11-23T17:14:02.711Z,4.80
2022-11-23T17:17:22.449Z,4.80
2022-11-23T17:20:30.818Z,4.80
2022-11-23T17:23:40.946Z,4.80
2022-11-23T17:26:53.119Z,4.80
2022-11-23T17:30:02.977Z,4.80
2022-11-23T17:33:13.780Z,4.80
2022-11-23T17:36:22.200Z,4.80
2022-11-23T17:39:31.016Z,4.80
2022-11-23T17:42:39.627Z,4.80
2022-11-23T17:45:48.479Z,4.80
2022-11-23T17:49:02.400Z,4.80
2022-11-23T17:52:12.549Z,4.80
2022-11-23T17:55:20.926Z,4.80
2022-11-23T17:58:29.305Z,4.80
2022-11-23T18:01:38.606Z,4.80
2022-11-23T18:04:48.693Z,4.80
2022-11-23T18:07:57.478Z,4.80
2022-11-23T18:11:06.223Z,4.80
2022-11-23T18:14:14.639Z,4.80
2022-11-23T18:17:24.043Z,4.80
2022-11-23T18:20:33.777Z,4.80
2022-11-23T18:23:42.459Z,4.80
2022-11-23T18:26:50.748Z,4.80
2022-11-23T18:29:59.162Z,4.80
2022-11-23T18:33:07.846Z,4.80
2022-11-23T18:36:17.651Z,4.80
2022-11-23T18:39:25.986Z,4.80
2022-11-23T18:42:34.264Z,4.80
2022-11-23T18:45:43.330Z,4.80
2022-11-23T18:48:52.184Z,4.80
2022-11-23T18:52:01.893Z,4.80
2022-11-23T18:55:10.395Z,4.80
2022-11-23T18:58:18.676Z,4.80
2022-11-23T19:01:27.055Z,4.80
2022-11-23T19:04:35.546Z,4.80
2022-11-23T19:07:45.725Z,4.80
2022-11-23T19:10:54.012Z,4.80
2022-11-23T19:14:02.489Z,4.70
2022-11-23T19:17:10.797Z,4.80
2022-11-23T19:20:20.616Z,4.80
2022-11-23T19:23:30.325Z,4.80
2022-11-23T19:26:38.758Z,4.70
2022-11-23T19:29:47.108Z,4.70
2022-11-23T19:32:55.415Z,4.70
2022-11-23T19:36:06.963Z,4.70
2022-11-23T19:39:16.724Z,4.70
2022-11-23T19:42:24.990Z,4.70
2022-11-23T19:45:33.320Z,4.70
2022-11-23T19:48:42.250Z,4.70
2022-11-23T19:51:52.675Z,4.70
2022-11-23T19:55:02.326Z,4.70
2022-11-23T19:58:10.646Z,4.70
2022-11-23T20:01:20.936Z,4.70
2022-11-23T20:04:29.363Z,4.70
2022-11-23T20:07:37.772Z,4.70
2022-11-23T20:10:47.491Z,4.70
2022-11-23T20:13:56.281Z,4.70
2022-11-23T20:17:04.619Z,4.70
2022-11-23T20:20:13.324Z,4.70
2022-11-23T20:23:21.649Z,4.70
2022-11-23T20:26:32.074Z,4.70
2022-11-23T20:29:40.453Z,4.70
2022-11-23T20:32:51.821Z,4.70
2022-11-23T20:36:09.608Z,4.70
2022-11-23T20:39:18.128Z,4.70
2022-11-23T20:42:27.801Z,4.70
2022-11-23T20:45:36.079Z,4.70
2022-11-23T20:48:46.336Z,4.70
2022-11-23T20:51:54.786Z,4.70
2022-11-23T20:55:03.112Z,4.70
2022-11-23T20:58:12.932Z,4.70
2022-11-23T21:01:21.957Z,4.70
2022-11-23T21:04:30.373Z,4.70
2022-11-23T21:07:38.810Z,4.70
2022-11-23T21:11:04.836Z,4.70
2022-11-23T21:14:18.167Z,4.70
2022-11-23T21:17:26.798Z,4.70
2022-11-23T21:20:36.641Z,4.70
2022-11-23T21:23:48.206Z,4.70
2022-11-23T21:26:59.482Z,4.70
2022-11-23T21:30:10.648Z,4.70
2022-11-23T21:33:18.979Z,4.70
2022-11-23T21:36:27.302Z,4.70
2022-11-23T21:39:35.680Z,4.70
2022-11-23T21:42:45.457Z,4.70
2022-11-23T21:46:01.394Z,4.70
2022-11-23T21:49:10.649Z,4.70
2022-11-23T21:52:19.033Z,4.70
2022-11-23T21:55:27.312Z,4.70
2022-11-23T21:58:36.069Z,4.70
2022-11-23T22:01:45.984Z,4.80
2022-11-23T22:04:54.441Z,4.80
2022-11-23T22:11:34.078Z,4.70
2022-11-23T22:14:42.723Z,4.70
2022-11-23T22:17:52.530Z,4.70
2022-11-23T22:21:05.175Z,4.70
2022-11-23T22:24:17.532Z,4.70
2022-11-23T22:27:25.988Z,4.70
2022-11-23T22:30:34.512Z,4.70
2022-11-23T22:33:45.148Z,4.70
2022-11-23T22:36:53.586Z,4.70
2022-11-23T22:40:02.045Z,4.70
2022-11-23T22:43:10.465Z,4.70
2022-11-23T22:46:20.613Z,4.70
2022-11-23T22:49:30.550Z,4.70
2022-11-23T22:52:39.309Z,4.70
2022-11-23T22:55:47.794Z,4.70
2022-11-23T22:58:56.280Z,4.70
2022-11-23T23:02:04.740Z,4.70
2022-11-23T23:05:14.719Z,4.70
2022-11-23T23:08:23.305Z,4.70
2022-11-23T23:11:33.294Z,4.70
2022-11-23T23:14:41.757Z,4.70
2022-11-23T23:17:50.217Z,4.70
2022-11-23T23:21:04.357Z,4.70
2022-11-23T23:24:13.174Z,4.60
2022-11-23T23:27:22.082Z,4.60
2022-11-23T23:30:30.686Z,4.70
2022-11-23T23:33:39.460Z,4.70
2022-11-23T23:36:49.297Z,4.70
2022-11-23T23:39:57.820Z,4.70
2022-11-23T23:43:06.215Z,4.70
2022-11-23T23:46:14.972Z,4.70
2022-11-23T23:49:24.560Z,4.70
2022-11-23T23:52:34.534Z,4.70
2022-11-23T23:55:43.030Z,4.70
2022-11-23T23:58:51.780Z,4.70
